Time;durP1;ratioP1;P1;durP2;ratioP2;P2;SDS_P1;SDS_P2;PMS_P1;PMS_P2;Temp;Humidity;BMP_temperature;BMP_pressure;BME280_temperature;BME280_humidity;BME280_pressure;Samples;Min_cycle;Max_cycle;Signal;HPM_P1;HPM_P2
2023/06/10 00:00:07;;;;;;;14.30;13.00;;;;;;;16.47;95.92;97579.78;107026;1276;22526;-82
2023/06/10 00:03:03;;;;;;;13.60;12.20;;;;;;;16.42;95.96;97581.09;107174;1276;22512;-83
2023/06/10 00:05:31;;;;;;;15.00;13.60;;;;;;;16.38;96.27;97581.06;107185;1276;25467;-83
2023/06/10 00:08:00;;;;;;;14.00;12.80;;;;;;;16.33;96.47;97576.84;107129;1276;22639;-83
2023/06/10 00:10:28;;;;;;;13.70;12.30;;;;;;;16.26;96.55;97575.91;107085;1276;25380;-82
2023/06/10 00:12:57;;;;;;;14.00;12.70;;;;;;;16.19;96.46;97576.01;107058;1276;25288;-83
2023/06/10 00:15:25;;;;;;;15.30;14.00;;;;;;;16.13;96.51;97577.08;107071;1276;22608;-82
2023/06/10 00:17:54;;;;;;;13.60;12.30;;;;;;;16.09;96.33;97573.16;107042;1264;24270;-83
2023/06/10 00:20:26;;;;;;;14.20;12.90;;;;;;;16.04;96.33;97574.17;107144;1276;26592;-82
2023/06/10 00:22:54;;;;;;;14.30;12.80;;;;;;;16.00;96.27;97577.78;107015;1276;25274;-83
2023/06/10 00:25:22;;;;;;;13.30;12.10;;;;;;;15.98;96.35;97577.70;107108;1276;24217;-83
2023/06/10 00:27:50;;;;;;;15.10;12.40;;;;;;;15.95;96.48;97576.84;107076;1276;22532;-83
2023/06/10 00:30:18;;;;;;;14.70;13.30;;;;;;;15.96;96.53;97580.52;107051;1275;26126;-84
2023/06/10 00:32:46;;;;;;;13.60;12.30;;;;;;;15.96;96.86;97578.27;107107;1276;25389;-83
2023/06/10 00:35:14;;;;;;;13.80;12.60;;;;;;;15.95;96.79;97578.95;107131;1276;25347;-84
2023/06/10 00:37:42;;;;;;;14.80;13.30;;;;;;;15.91;96.98;97580.77;107082;1276;22593;-84
2023/06/10 00:40:10;;;;;;;13.50;12.10;;;;;;;15.87;97.11;97581.87;107083;1276;24261;-83
2023/06/10 00:42:38;;;;;;;16.20;12.50;;;;;;;15.85;96.96;97584.30;107081;1276;22530;-84
2023/06/10 00:45:07;;;;;;;16.70;12.70;;;;;;;15.85;97.45;97584.99;107082;1276;24268;-84
2023/06/10 00:47:37;;;;;;;12.80;11.60;;;;;;;15.88;97.63;97588.51;107120;1276;23052;-83
2023/06/10 00:50:06;;;;;;;12.60;11.40;;;;;;;15.91;97.82;97590.98;107081;1276;22550;-83
2023/06/10 00:52:35;;;;;;;13.80;12.10;;;;;;;15.94;97.97;97590.37;107085;1276;22778;-83
2023/06/10 00:55:04;;;;;;;13.00;11.70;;;;;;;15.97;98.09;97594.74;107023;1276;24364;-83
2023/06/10 00:57:32;;;;;;;15.10;12.50;;;;;;;16.01;98.16;97600.39;107038;1276;24265;-83
2023/06/10 01:00:00;;;;;;;12.40;11.20;;;;;;;16.04;98.26;97598.47;107101;1263;22531;-83
2023/06/10 01:02:29;;;;;;;13.70;12.50;;;;;;;16.06;98.24;97601.93;107132;1276;22488;-82
2023/06/10 01:05:01;;;;;;;13.30;11.90;;;;;;;16.07;98.57;97603.06;107459;1276;22587;-83
2023/06/10 01:08:15;;;;;;;13.60;12.20;;;;;;;16.05;98.82;97601.31;107051;1276;22541;-83
2023/06/10 01:10:53;;;;;;;13.50;12.10;;;;;;;16.08;99.07;97600.06;106987;1276;24259;-82
2023/06/10 01:13:23;;;;;;;13.30;12.00;;;;;;;16.06;99.47;97600.33;107105;1276;23313;-82
2023/06/10 01:15:52;;;;;;;13.90;12.10;;;;;;;16.07;99.83;97594.30;107119;1276;25405;-84
2023/06/10 01:18:21;;;;;;;14.60;12.80;;;;;;;16.09;100.00;97593.96;107133;1276;24224;-85
2023/06/10 01:20:49;;;;;;;16.80;11.70;;;;;;;16.09;100.00;97596.08;107122;1276;24212;-84
2023/06/10 01:23:18;;;;;;;15.40;13.80;;;;;;;16.10;100.00;97593.92;107215;1276;24212;-85
2023/06/10 01:26:00;;;;;;;14.00;12.50;;;;;;;16.11;100.00;97599.63;107234;1276;22553;-84
2023/06/10 01:28:38;;;;;;;14.20;12.80;;;;;;;16.12;100.00;97602.30;107228;1276;22511;-84
2023/06/10 01:31:25;;;;;;;14.90;13.20;;;;;;;16.13;100.00;97603.48;107329;1276;22656;-84
2023/06/10 01:33:54;;;;;;;13.80;12.50;;;;;;;16.17;100.00;97605.77;107342;1276;25262;-84
2023/06/10 01:36:24;;;;;;;15.40;12.60;;;;;;;16.20;100.00;97605.23;107129;1276;22532;-83
2023/06/10 01:43:02;;;;;;;13.80;12.50;;;;;;;16.24;100.00;97609.04;107089;1276;22573;-84
2023/06/10 01:45:30;;;;;;;13.90;12.30;;;;;;;16.27;100.00;97609.73;106926;1276;22774;-82
2023/06/10 01:47:58;;;;;;;15.50;12.90;;;;;;;16.28;100.00;97610.05;107177;1276;23114;-83
2023/06/10 01:50:26;;;;;;;14.60;13.10;;;;;;;16.29;100.00;97610.01;107097;1276;22524;-83
2023/06/10 01:52:57;;;;;;;14.90;13.40;;;;;;;16.31;100.00;97607.99;107091;1276;26505;-84
2023/06/10 01:55:27;;;;;;;15.50;13.90;;;;;;;16.34;100.00;97609.08;107065;1273;22546;-83
2023/06/10 01:57:55;;;;;;;14.10;12.70;;;;;;;16.35;100.00;97612.38;107059;1276;22521;-83
2023/06/10 02:00:24;;;;;;;14.50;13.10;;;;;;;16.40;100.00;97611.95;107091;1276;25374;-83
2023/06/10 02:02:52;;;;;;;14.10;12.80;;;;;;;16.43;100.00;97610.95;107069;1276;24283;-83
2023/06/10 02:05:20;;;;;;;16.70;13.40;;;;;;;16.46;100.00;97615.33;107041;1276;25539;-84
2023/06/10 02:07:49;;;;;;;14.50;13.10;;;;;;;16.49;100.00;97613.73;107051;1276;22462;-83
2023/06/10 02:10:18;;;;;;;14.30;12.80;;;;;;;16.53;100.00;97613.05;107086;1276;25393;-83
2023/06/10 02:12:45;;;;;;;15.00;13.60;;;;;;;16.56;100.00;97608.80;106997;1276;25312;-83
2023/06/10 02:15:14;;;;;;;14.80;13.40;;;;;;;16.59;100.00;97613.67;107130;1276;25376;-82
2023/06/10 02:17:42;;;;;;;13.90;12.60;;;;;;;16.56;99.98;97610.59;107063;1276;24699;-82
2023/06/10 02:20:13;;;;;;;13.90;12.70;;;;;;;16.55;100.00;97609.06;107131;1276;25503;-82
2023/06/10 02:22:41;;;;;;;15.10;12.00;;;;;;;16.56;100.00;97607.25;107015;1276;24203;-82
2023/06/10 02:25:09;;;;;;;14.30;12.80;;;;;;;16.56;100.00;97608.31;107150;1276;23164;-83
2023/06/10 02:27:38;;;;;;;12.90;11.70;;;;;;;16.55;100.00;97611.41;107117;1276;22554;-83
2023/06/10 02:30:09;;;;;;;12.40;11.20;;;;;;;16.55;100.00;97610.25;106834;1276;22824;-83
2023/06/10 02:32:38;;;;;;;11.80;10.70;;;;;;;16.55;100.00;97609.70;107081;1276;25271;-82
2023/06/10 02:35:06;;;;;;;12.60;11.50;;;;;;;16.52;100.00;97613.09;107103;1276;22578;-83
2023/06/10 02:37:34;;;;;;;10.30;9.30;;;;;;;16.46;100.00;97612.47;107053;1276;22559;-83
2023/06/10 02:40:03;;;;;;;11.60;10.10;;;;;;;16.44;100.00;97608.44;107096;1276;22635;-83
2023/06/10 02:42:32;;;;;;;11.90;9.70;;;;;;;16.46;100.00;97604.92;107052;1276;23313;-83
2023/06/10 02:45:01;;;;;;;10.80;9.70;;;;;;;16.48;100.00;97601.58;107033;1276;22534;-83
2023/06/10 02:47:39;;;;;;;10.30;9.30;;;;;;;16.50;100.00;97603.20;106997;1254;22528;-83
2023/06/10 02:50:08;;;;;;;10.30;9.00;;;;;;;16.50;100.00;97604.17;106998;1276;22521;-83
2023/06/10 02:52:43;;;;;;;11.20;9.10;;;;;;;16.50;100.00;97604.96;107144;1276;22528;-83
2023/06/10 02:55:11;;;;;;;10.20;8.50;;;;;;;16.48;100.00;97601.56;107060;1276;22640;-83
2023/06/10 02:57:41;;;;;;;9.70;8.40;;;;;;;16.44;100.00;97609.50;106971;1276;24004;-83
2023/06/10 03:00:10;;;;;;;9.00;8.10;;;;;;;16.41;100.00;97610.75;106997;1276;22777;-83
2023/06/10 03:02:40;;;;;;;8.60;7.80;;;;;;;16.42;100.00;97614.84;107015;1276;22541;-84
2023/06/10 03:05:09;;;;;;;8.60;7.80;;;;;;;16.42;100.00;97612.95;106990;1276;24244;-84
2023/06/10 03:07:39;;;;;;;9.40;8.40;;;;;;;16.40;100.00;97616.70;107024;1276;24258;-83
2023/06/10 03:10:08;;;;;;;12.30;8.20;;;;;;;16.39;100.00;97614.89;106988;1276;22524;-83
2023/06/10 03:12:37;;;;;;;9.70;8.70;;;;;;;16.40;100.00;97616.92;106961;1262;22581;-82
2023/06/10 03:15:06;;;;;;;10.70;7.00;;;;;;;16.41;100.00;97618.21;106958;1276;22562;-84
2023/06/10 03:17:35;;;;;;;10.00;9.00;;;;;;;16.43;100.00;97626.89;107087;1276;23042;-84
2023/06/10 03:20:05;;;;;;;10.50;9.20;;;;;;;16.41;100.00;97628.24;106795;1276;24361;-84
2023/06/10 03:22:34;;;;;;;10.50;9.50;;;;;;;16.39;100.00;97629.67;107102;1276;25108;-83
2023/06/10 03:25:13;;;;;;;11.80;10.70;;;;;;;16.39;100.00;97633.39;107064;1276;22559;-84
2023/06/10 03:27:44;;;;;;;11.70;9.50;;;;;;;16.39;100.00;97636.35;106937;1276;24348;-83
2023/06/10 03:30:13;;;;;;;11.50;9.70;;;;;;;16.41;100.00;97636.86;107086;1276;25311;-84
2023/06/10 03:32:43;;;;;;;12.20;10.60;;;;;;;16.40;100.00;97641.41;107100;1276;22582;-84
2023/06/10 03:35:15;;;;;;;13.70;11.90;;;;;;;16.41;100.00;97643.45;107104;1276;22626;-84
2023/06/10 03:37:43;;;;;;;13.40;12.20;;;;;;;16.37;100.00;97643.82;107022;1276;22527;-83
2023/06/10 03:40:11;;;;;;;13.40;12.10;;;;;;;16.35;100.00;97643.44;107106;1272;24242;-84
2023/06/10 03:42:41;;;;;;;13.60;12.20;;;;;;;16.37;100.00;97644.04;107039;1276;22531;-84
2023/06/10 03:45:10;;;;;;;14.70;11.70;;;;;;;16.41;100.00;97643.69;107105;1276;22524;-84
2023/06/10 03:47:40;;;;;;;14.20;12.90;;;;;;;16.45;100.00;97643.59;106999;1275;24234;-84
2023/06/10 03:50:11;;;;;;;13.50;12.20;;;;;;;16.49;100.00;97645.41;107018;1276;24321;-84
2023/06/10 03:52:41;;;;;;;13.40;12.00;;;;;;;16.51;100.00;97647.82;107153;1276;22590;-83
2023/06/10 03:55:11;;;;;;;14.70;12.40;;;;;;;16.55;100.00;97646.77;107088;1276;25265;-83
2023/06/10 03:57:42;;;;;;;14.50;11.60;;;;;;;16.61;100.00;97648.81;107109;1276;22543;-83
2023/06/10 04:00:13;;;;;;;13.50;12.20;;;;;;;16.66;100.00;97649.79;107010;1276;22529;-84
2023/06/10 04:02:49;;;;;;;13.60;12.30;;;;;;;16.70;100.00;97650.94;106962;1276;24259;-84
2023/06/10 04:05:28;;;;;;;12.80;11.30;;;;;;;16.74;100.00;97655.16;106996;1276;25330;-84
2023/06/10 04:07:57;;;;;;;13.40;10.80;;;;;;;16.77;100.00;97659.18;107017;1276;22643;-83
2023/06/10 04:10:26;;;;;;;13.70;11.70;;;;;;;16.77;100.00;97659.10;107123;1276;22531;-83
2023/06/10 04:12:55;;;;;;;15.30;11.20;;;;;;;16.79;100.00;97659.23;107118;1276;22531;-84
2023/06/10 04:15:25;;;;;;;12.80;11.40;;;;;;;16.80;100.00;97658.80;107041;1276;23368;-83
2023/06/10 04:17:53;;;;;;;12.40;11.00;;;;;;;16.81;100.00;97660.29;106840;1276;25288;-84
2023/06/10 04:20:23;;;;;;;12.20;10.90;;;;;;;16.81;100.00;97664.48;107196;1276;22517;-84
2023/06/10 04:22:51;;;;;;;12.50;10.10;;;;;;;16.83;100.00;97662.35;107148;1276;25484;-84
2023/06/10 04:25:20;;;;;;;12.80;11.50;;;;;;;16.85;100.00;97659.92;107194;1276;25192;-83
2023/06/10 04:27:50;;;;;;;12.00;9.60;;;;;;;16.88;100.00;97656.82;108420;1276;25235;-84
2023/06/10 04:30:19;;;;;;;11.20;9.80;;;;;;;16.89;100.00;97660.52;107504;1276;25293;-84
2023/06/10 04:32:47;;;;;;;11.10;9.70;;;;;;;16.93;100.00;97661.01;107289;1276;25265;-82
2023/06/10 04:35:16;;;;;;;9.80;8.70;;;;;;;16.97;100.00;97664.21;107436;1276;25293;-82
2023/06/10 04:37:45;;;;;;;14.00;10.20;;;;;;;16.97;100.00;97660.83;107414;1276;22624;-83
2023/06/10 04:40:15;;;;;;;10.70;9.10;;;;;;;16.98;99.95;97662.78;107124;1276;22576;-85
2023/06/10 04:42:44;;;;;;;12.00;8.90;;;;;;;17.00;99.94;97666.42;107145;1276;22521;-84
2023/06/10 04:45:13;;;;;;;10.00;8.80;;;;;;;17.06;99.89;97669.37;107198;1276;22528;-84
2023/06/10 04:47:47;;;;;;;9.20;8.10;;;;;;;17.11;99.52;97668.12;107060;1276;22530;-85
2023/06/10 04:50:15;;;;;;;9.50;8.30;;;;;;;17.12;99.37;97670.95;107119;1272;22582;-84
2023/06/10 04:52:44;;;;;;;10.30;9.20;;;;;;;17.13;99.11;97670.66;107076;1276;23916;-84
2023/06/10 04:55:13;;;;;;;12.20;9.00;;;;;;;17.12;98.85;97672.83;107051;1276;22524;-82
2023/06/10 04:57:41;;;;;;;10.30;8.60;;;;;;;17.11;98.75;97674.42;107149;1276;25333;-82
2023/06/10 05:00:10;;;;;;;10.20;8.50;;;;;;;17.13;98.72;97675.96;107174;1276;25438;-83
2023/06/10 05:02:38;;;;;;;10.60;8.50;;;;;;;17.16;98.50;97678.54;107096;1276;22525;-84
2023/06/10 05:05:06;;;;;;;10.30;7.80;;;;;;;17.20;98.21;97680.09;107087;1276;25268;-84
2023/06/10 05:07:35;;;;;;;9.10;8.00;;;;;;;17.19;97.86;97680.31;107096;1276;24205;-83
2023/06/10 05:10:03;;;;;;;11.70;8.50;;;;;;;17.18;97.80;97683.41;107123;1258;23304;-83
2023/06/10 05:12:31;;;;;;;11.00;8.10;;;;;;;17.17;97.34;97682.84;107082;1276;22507;-83
2023/06/10 05:14:59;;;;;;;10.10;7.70;;;;;;;17.18;97.40;97684.80;106958;1276;192558;-83
2023/06/10 05:17:28;;;;;;;12.40;8.10;;;;;;;17.21;97.41;97679.84;107068;1276;25316;-83
2023/06/10 05:19:56;;;;;;;10.00;7.60;;;;;;;17.30;97.60;97682.02;107098;1276;22550;-83
2023/06/10 05:22:24;;;;;;;10.50;8.50;;;;;;;17.39;97.52;97688.73;107133;1276;22521;-84
2023/06/10 05:24:53;;;;;;;9.40;8.30;;;;;;;17.46;97.14;97689.29;107153;1276;22555;-83
2023/06/10 05:27:22;;;;;;;10.30;8.30;;;;;;;17.51;97.11;97690.91;107261;1276;25377;-83
2023/06/10 05:29:51;;;;;;;11.40;8.50;;;;;;;17.54;96.63;97690.36;107092;1276;22528;-83
2023/06/10 05:32:19;;;;;;;12.10;8.30;;;;;;;17.56;96.22;97688.07;107099;1276;23632;-83
2023/06/10 05:34:47;;;;;;;9.00;8.20;;;;;;;17.60;96.55;97691.77;107075;1276;22533;-83
2023/06/10 05:37:15;;;;;;;9.40;7.90;;;;;;;17.67;96.16;97689.94;107088;1276;24396;-83
2023/06/10 05:39:43;;;;;;;10.70;7.90;;;;;;;17.74;96.26;97690.77;107127;1276;23586;-83
2023/06/10 05:42:11;;;;;;;10.80;8.70;;;;;;;17.79;96.09;97691.09;107129;1276;24247;-83
2023/06/10 05:44:40;;;;;;;9.70;8.70;;;;;;;17.86;95.93;97692.75;107095;1276;24269;-83
2023/06/10 05:47:09;;;;;;;10.20;8.20;;;;;;;17.95;95.73;97690.41;107109;1276;22534;-82
2023/06/10 05:49:37;;;;;;;10.80;8.00;;;;;;;18.07;95.72;97694.14;107073;1262;24279;-83
2023/06/10 05:52:05;;;;;;;12.80;8.30;;;;;;;18.21;94.78;97693.37;107078;1276;22961;-83
2023/06/10 05:54:33;;;;;;;12.10;9.00;;;;;;;18.33;94.43;97695.60;107088;1276;22531;-83
2023/06/10 05:57:03;;;;;;;11.20;8.80;;;;;;;18.48;94.37;97695.95;107058;1276;22573;-83
2023/06/10 05:59:31;;;;;;;12.70;8.80;;;;;;;18.63;92.78;97697.20;107042;1276;22737;-81
2023/06/10 06:01:59;;;;;;;10.10;8.00;;;;;;;18.76;92.39;97694.80;107093;1276;25380;-83
2023/06/10 06:04:27;;;;;;;10.50;8.10;;;;;;;18.86;92.63;97696.95;107197;1276;22524;-83
2023/06/10 06:06:55;;;;;;;11.80;8.00;;;;;;;18.93;91.68;97702.02;107763;1276;22630;-80
2023/06/10 06:09:23;;;;;;;8.80;7.90;;;;;;;18.93;91.39;97697.25;107435;1276;22770;-82
2023/06/10 06:11:51;;;;;;;8.70;7.90;;;;;;;18.94;91.04;97699.92;106955;1276;25448;-83
2023/06/10 06:14:20;;;;;;;10.00;7.60;;;;;;;18.91;90.56;97696.51;107155;1272;22558;-82
2023/06/10 06:16:48;;;;;;;9.60;7.70;;;;;;;18.95;90.95;97700.89;107088;1276;24233;-82
2023/06/10 06:19:16;;;;;;;10.10;8.00;;;;;;;19.00;90.81;97701.63;107128;1276;22638;-81
2023/06/10 06:21:44;;;;;;;9.10;7.60;;;;;;;19.01;90.40;97701.09;107112;1276;22535;-82
2023/06/10 06:24:11;;;;;;;8.50;7.70;;;;;;;19.01;90.11;97702.02;107108;1276;22533;-82
2023/06/10 06:26:40;;;;;;;10.80;8.10;;;;;;;18.97;89.06;97697.56;106800;1267;23079;-82
2023/06/10 06:29:08;;;;;;;8.60;7.70;;;;;;;18.86;89.04;97702.70;107099;1276;25382;-82
2023/06/10 06:31:36;;;;;;;9.10;8.20;;;;;;;18.79;89.42;97706.54;107101;1276;23990;-82
2023/06/10 06:34:04;;;;;;;9.40;8.30;;;;;;;18.79;89.39;97707.50;107155;1254;25567;-82
2023/06/10 06:36:32;;;;;;;7.40;6.70;;;;;;;18.85;89.45;97706.61;107170;1276;24358;-82
2023/06/10 06:39:00;;;;;;;13.30;7.80;;;;;;;18.93;89.32;97711.67;107098;1276;24229;-81
2023/06/10 06:41:29;;;;;;;8.30;7.00;;;;;;;19.00;88.60;97713.39;107053;1276;22565;-81
2023/06/10 06:43:57;;;;;;;9.10;8.20;;;;;;;19.09;89.17;97717.77;107062;1276;22776;-82
2023/06/10 06:46:38;;;;;;;9.80;8.00;;;;;;;19.25;89.32;97719.98;107085;1276;23255;-82
2023/06/10 06:49:06;;;;;;;9.60;7.40;;;;;;;19.39;88.47;97726.41;107086;1276;24350;-82
2023/06/10 06:51:35;;;;;;;8.50;7.10;;;;;;;19.43;87.62;97730.08;107060;1276;22530;-82
2023/06/10 06:54:05;;;;;;;10.20;8.20;;;;;;;19.47;87.11;97730.01;107141;1276;25380;-82
2023/06/10 06:56:33;;;;;;;9.40;8.10;;;;;;;19.55;86.95;97730.62;107135;1276;22583;-82
2023/06/10 06:59:01;;;;;;;10.90;8.00;;;;;;;19.72;87.40;97730.26;107085;1276;24052;-82
2023/06/10 07:01:29;;;;;;;8.40;7.50;;;;;;;19.86;87.34;97731.15;107098;1276;22651;-82
2023/06/10 07:03:57;;;;;;;10.50;7.50;;;;;;;20.04;86.86;97733.55;107062;1276;22631;-82
2023/06/10 07:06:25;;;;;;;7.90;7.10;;;;;;;20.28;86.80;97733.48;107099;1276;25386;-82
2023/06/10 07:08:53;;;;;;;9.50;7.40;;;;;;;20.61;87.26;97732.98;107175;1276;25319;-82
2023/06/10 07:11:22;;;;;;;8.50;7.40;;;;;;;20.99;86.75;97733.67;107148;1276;22611;-82
2023/06/10 07:13:49;;;;;;;11.40;6.90;;;;;;;21.28;85.99;97738.19;107140;1276;22586;-82
2023/06/10 07:16:20;;;;;;;7.90;6.60;;;;;;;21.53;83.64;97743.28;107125;1276;22736;-83
2023/06/10 07:18:48;;;;;;;8.80;6.90;;;;;;;21.71;82.33;97737.38;107086;1276;22571;-82
2023/06/10 07:21:16;;;;;;;9.20;7.20;;;;;;;21.87;82.86;97740.89;107101;1275;23613;-83
2023/06/10 07:23:44;;;;;;;11.30;7.40;;;;;;;21.88;79.73;97744.05;107092;1276;25468;-82
2023/06/10 07:26:13;;;;;;;9.00;7.30;;;;;;;21.77;79.72;97750.11;107955;1269;23003;-83
2023/06/10 07:28:42;;;;;;;10.60;6.80;;;;;;;21.77;80.47;97753.96;108524;1276;22595;-83
2023/06/10 07:31:11;;;;;;;10.40;7.10;;;;;;;21.84;80.06;97752.55;107414;1276;22724;-83
2023/06/10 07:33:40;;;;;;;8.40;7.00;;;;;;;21.74;79.28;97756.84;107163;1276;22857;-83
2023/06/10 07:36:08;;;;;;;7.40;6.50;;;;;;;21.71;79.37;97756.64;107097;1253;24385;-83
2023/06/10 07:38:36;;;;;;;11.50;6.80;;;;;;;21.76;78.24;97757.48;107015;1276;23935;-82
2023/06/10 07:41:04;;;;;;;9.60;7.60;;;;;;;21.66;77.37;97763.88;107121;1276;24657;-83
2023/06/10 07:43:32;;;;;;;10.10;8.00;;;;;;;21.52;76.74;97762.15;106949;1276;25271;-83
2023/06/10 07:46:00;;;;;;;8.20;7.30;;;;;;;21.35;77.40;97763.81;107100;1276;22644;-83
2023/06/10 07:48:28;;;;;;;10.40;7.30;;;;;;;21.20;77.11;97764.01;107120;1254;22778;-82
2023/06/10 07:50:56;;;;;;;8.20;7.10;;;;;;;21.14;78.27;97765.89;107166;1276;22646;-82
2023/06/10 07:53:24;;;;;;;7.70;6.90;;;;;;;21.25;77.76;97765.95;107152;1276;22720;-82
2023/06/10 07:55:53;;;;;;;8.90;6.80;;;;;;;21.41;78.12;97764.84;107098;1269;22659;-84
2023/06/10 07:58:22;;;;;;;8.20;6.80;;;;;;;21.50;77.77;97763.77;107130;1276;25458;-83
2023/06/10 08:00:50;;;;;;;8.60;6.60;;;;;;;21.59;78.08;97768.27;107242;1276;22747;-83
2023/06/10 08:03:18;;;;;;;9.10;7.10;;;;;;;21.66;78.04;97769.91;107594;1263;24240;-82
2023/06/10 08:05:47;;;;;;;7.20;6.00;;;;;;;21.75;76.99;97776.43;107797;1276;22635;-84
2023/06/10 08:08:15;;;;;;;7.70;6.90;;;;;;;21.74;76.74;97774.61;107097;1276;22488;-83
2023/06/10 08:10:43;;;;;;;8.10;6.30;;;;;;;21.79;76.27;97778.83;107222;1273;22577;-85
2023/06/10 08:13:11;;;;;;;11.10;6.90;;;;;;;21.89;76.54;97782.29;107172;1276;22521;-84
2023/06/10 08:15:39;;;;;;;7.60;5.70;;;;;;;21.90;75.44;97787.23;106996;1276;22633;-83
2023/06/10 08:18:07;;;;;;;8.60;6.40;;;;;;;21.80;74.54;97789.88;107103;1270;24157;-83
2023/06/10 08:20:35;;;;;;;7.40;6.10;;;;;;;21.69;75.27;97789.14;107115;1276;25281;-83
2023/06/10 08:23:03;;;;;;;11.50;6.10;;;;;;;21.73;75.36;97788.25;107138;1276;22513;-83
2023/06/10 08:25:31;;;;;;;7.50;6.10;;;;;;;21.72;74.59;97788.70;107072;1276;22643;-83
2023/06/10 08:27:59;;;;;;;9.30;6.40;;;;;;;21.76;75.30;97788.66;107062;1276;22535;-83
2023/06/10 08:30:27;;;;;;;6.80;6.10;;;;;;;21.81;74.46;97784.02;107077;1272;22546;-83
2023/06/10 08:32:55;;;;;;;9.00;6.50;;;;;;;21.89;74.69;97784.33;107052;1270;22514;-83
2023/06/10 08:35:23;;;;;;;9.50;6.50;;;;;;;21.99;74.01;97782.00;107051;1276;23259;-83
2023/06/10 08:37:51;;;;;;;7.70;6.30;;;;;;;22.08;74.52;97782.09;107080;1276;22518;-83
2023/06/10 08:40:19;;;;;;;7.70;6.10;;;;;;;22.23;74.44;97775.66;106992;1276;22563;-83
2023/06/10 08:42:58;;;;;;;10.00;6.40;;;;;;;22.31;74.13;97773.54;107102;1276;25415;-83
2023/06/10 08:45:31;;;;;;;8.00;7.20;;;;;;;22.39;73.31;97772.52;107101;1276;22524;-83
2023/06/10 08:48:01;;;;;;;8.00;6.10;;;;;;;22.42;73.70;97773.02;107453;1276;22634;-83
2023/06/10 08:50:31;;;;;;;9.30;6.30;;;;;;;22.54;73.77;97773.10;107769;1276;23022;-83
2023/06/10 08:53:00;;;;;;;10.20;7.00;;;;;;;22.68;73.25;97776.19;107166;1276;25332;-83
2023/06/10 08:55:51;;;;;;;10.40;6.70;;;;;;;22.83;72.98;97782.09;107179;1276;22634;-83
2023/06/10 08:58:20;;;;;;;12.60;6.80;;;;;;;22.93;72.12;97784.66;107104;1276;23895;-82
2023/06/10 09:00:48;;;;;;;13.80;7.00;;;;;;;22.99;71.31;97783.72;107116;1276;22514;-82
2023/06/10 09:03:17;;;;;;;9.50;6.10;;;;;;;22.99;70.30;97784.66;107100;1276;26076;-82
2023/06/10 09:05:46;;;;;;;10.30;6.80;;;;;;;22.89;69.20;97788.56;106904;1276;25504;-82
2023/06/10 09:08:15;;;;;;;9.40;6.60;;;;;;;22.80;68.64;97790.38;107155;1259;24192;-82
2023/06/10 09:10:44;;;;;;;9.00;6.60;;;;;;;22.83;68.83;97784.76;107150;1276;23273;-82
2023/06/10 09:13:15;;;;;;;9.40;6.30;;;;;;;22.94;68.72;97789.24;107175;1276;22671;-82
2023/06/10 09:15:43;;;;;;;9.90;6.80;;;;;;;22.97;68.03;97788.34;107139;1276;22622;-82
2023/06/10 09:18:12;;;;;;;10.20;6.40;;;;;;;22.96;68.34;97788.33;107090;1276;25281;-82
2023/06/10 09:20:43;;;;;;;9.60;6.30;;;;;;;22.96;68.26;97787.31;107134;1276;24343;-82
2023/06/10 09:23:12;;;;;;;7.90;6.10;;;;;;;23.05;68.66;97785.15;107179;1276;24215;-81
2023/06/10 09:25:40;;;;;;;9.20;5.70;;;;;;;23.14;67.43;97787.25;107145;1276;24225;-81
2023/06/10 09:28:14;;;;;;;6.40;5.70;;;;;;;23.03;67.74;97791.27;107142;1276;25284;-81
2023/06/10 09:30:43;;;;;;;8.40;5.40;;;;;;;22.93;67.85;97791.65;107154;1276;22524;-81
2023/06/10 09:33:15;;;;;;;11.80;5.70;;;;;;;22.91;67.32;97789.36;107088;1276;22616;-81
2023/06/10 09:35:47;;;;;;;8.00;5.70;;;;;;;22.99;68.06;97788.80;107194;1276;24237;-81
2023/06/10 09:38:21;;;;;;;7.90;5.70;;;;;;;23.28;68.00;97782.98;107213;1276;25293;-81
2023/06/10 09:40:51;;;;;;;6.20;5.30;;;;;;;23.63;66.16;97786.84;107130;1276;25350;-81
2023/06/10 09:43:21;;;;;;;7.20;4.70;;;;;;;23.78;66.65;97787.30;107140;1276;27627;-82
2023/06/10 09:45:52;;;;;;;6.50;4.60;;;;;;;24.01;65.65;97787.98;106941;1276;22648;-82
2023/06/10 09:48:23;;;;;;;5.30;4.20;;;;;;;24.14;64.66;97782.81;107131;1276;25373;-81
2023/06/10 09:50:51;;;;;;;7.30;4.50;;;;;;;24.24;63.78;97781.89;107193;1276;25415;-81
2023/06/10 09:53:20;;;;;;;8.00;4.40;;;;;;;24.44;63.36;97776.00;107041;1276;22573;-81
2023/06/10 09:55:48;;;;;;;8.80;4.50;;;;;;;24.53;62.85;97774.36;107135;1276;25575;-81
2023/06/10 09:58:16;;;;;;;5.70;4.40;;;;;;;24.57;62.55;97773.89;107191;1276;22661;-82
2023/06/10 10:00:52;;;;;;;5.40;4.40;;;;;;;24.65;62.64;97775.62;107130;1276;22627;-82
2023/06/10 10:03:24;;;;;;;7.00;3.80;;;;;;;24.58;62.29;97772.64;107117;1276;24217;-82
2023/06/10 10:05:59;;;;;;;7.50;4.40;;;;;;;24.61;63.19;97772.63;107005;1276;24135;-82
2023/06/10 10:08:28;;;;;;;5.60;4.00;;;;;;;24.69;62.96;97768.44;107047;1276;22540;-82
2023/06/10 10:10:57;;;;;;;5.90;3.60;;;;;;;24.69;62.65;97771.05;107092;1276;22532;-82
2023/06/10 10:13:27;;;;;;;7.50;5.00;;;;;;;24.67;62.01;97772.15;107141;1275;23235;-82
2023/06/10 10:16:01;;;;;;;9.00;4.50;;;;;;;24.51;62.01;97777.34;107158;1276;22528;-82
2023/06/10 10:18:31;;;;;;;7.50;3.90;;;;;;;24.25;61.42;97777.63;107138;1276;22674;-82
2023/06/10 10:21:04;;;;;;;5.60;4.20;;;;;;;23.89;60.92;97781.59;107094;1276;22768;-82
2023/06/10 10:23:43;;;;;;;6.20;4.00;;;;;;;23.53;61.24;97777.29;106992;1275;24065;-82
2023/06/10 10:26:11;;;;;;;5.60;3.80;;;;;;;23.43;61.22;97775.21;106921;1276;24335;-82
2023/06/10 10:28:58;;;;;;;8.20;4.00;;;;;;;23.66;60.75;97779.08;107105;1253;22591;-82
2023/06/10 10:31:30;;;;;;;5.90;4.30;;;;;;;23.91;60.15;97782.45;106996;1276;25210;-82
2023/06/10 10:33:59;;;;;;;8.90;3.70;;;;;;;24.08;59.83;97786.90;107107;1276;22530;-83
2023/06/10 10:36:28;;;;;;;5.10;3.60;;;;;;;24.11;58.58;97784.85;107133;1276;25131;-82
2023/06/10 10:38:58;;;;;;;6.90;4.10;;;;;;;24.21;58.94;97778.58;107140;1253;22853;-80
2023/06/10 10:41:26;;;;;;;8.30;4.10;;;;;;;24.45;59.61;97779.46;107115;1276;24226;-82
2023/06/10 10:43:55;;;;;;;6.20;4.20;;;;;;;24.49;57.78;97782.85;107140;1276;22572;-82
2023/06/10 10:46:24;;;;;;;4.30;3.80;;;;;;;24.14;58.54;97784.39;107140;1276;25535;-82
2023/06/10 10:48:54;;;;;;;5.10;3.70;;;;;;;23.98;59.29;97784.60;107139;1276;24259;-82
2023/06/10 10:51:23;;;;;;;6.50;3.90;;;;;;;24.11;58.95;97782.88;107196;1276;22602;-81
2023/06/10 10:54:12;;;;;;;8.40;3.70;;;;;;;24.15;58.60;97785.89;107029;1276;22533;-81
2023/06/10 10:57:18;;;;;;;4.70;3.70;;;;;;;24.31;58.71;97788.34;107141;1276;22524;-81
2023/06/10 11:00:01;;;;;;;4.10;3.70;;;;;;;24.52;57.60;97789.39;107137;1276;25076;-82
2023/06/10 11:02:33;;;;;;;5.00;3.70;;;;;;;24.34;57.76;97794.31;107171;1276;24059;-83
2023/06/10 11:05:02;;;;;;;5.00;3.30;;;;;;;24.40;58.31;97790.16;107147;1276;22514;-84
2023/06/10 11:07:32;;;;;;;7.10;3.80;;;;;;;24.61;58.38;97786.55;107293;1275;24256;-83
2023/06/10 11:10:07;;;;;;;5.30;3.60;;;;;;;24.81;58.05;97784.33;107326;1276;22520;-83
2023/06/10 11:12:45;;;;;;;4.70;3.80;;;;;;;24.85;56.32;97782.34;107445;1276;22528;-82
2023/06/10 11:15:13;;;;;;;5.40;3.60;;;;;;;24.59;56.77;97779.46;107429;1276;26518;-83
2023/06/10 11:18:11;;;;;;;5.40;3.80;;;;;;;24.40;57.64;97779.92;107352;1276;22524;-82
2023/06/10 11:20:42;;;;;;;9.90;4.40;;;;;;;24.47;57.63;97781.38;107068;1276;23626;-85
2023/06/10 11:23:10;;;;;;;5.50;3.80;;;;;;;24.52;56.96;97776.41;107174;1276;24869;-83
2023/06/10 11:25:39;;;;;;;5.70;3.80;;;;;;;24.45;55.12;97773.16;107179;1276;25395;-83
2023/06/10 11:28:20;;;;;;;5.60;4.10;;;;;;;23.92;55.58;97775.30;107245;1276;22576;-82
2023/06/10 11:30:57;;;;;;;7.30;4.30;;;;;;;23.59;56.84;97773.39;107131;1276;24225;-83
2023/06/10 11:33:25;;;;;;;14.30;5.30;;;;;;;23.63;57.65;97771.91;107203;1276;23869;-83